»·PEaware :: DAL2260 KLAX-KSAN

DAL2260 :: KLAX-KSAN

FLIGHT INFORMATION

Flight Status: Arrived
Operator:
Delta Air Lines
More flights by this operator :: More flights under this callsign
Pilot: Aaron F. (12391)
Aircraft: BOEING 737-300
(B733)
More flights by this aircraft type
Origin: KLAX Los Angeles Intl
United States
Destination: KSAN San Diego Intl-Lindbergh
United States
More flights between these airports :: More routes between these airports
Route: + LAXX1 MZB
File this flight plan on PilotEdge
Remarks:
Altitude:
(Current/Filed)
11,000ft
Speed:
(Current/Filed)
320kts
Departed: 24-Nov-17 02:33 PM
Arrived: 24-Nov-17 03:05 PM
Distance/Time
Traveled:
94nm/0:32
Distance/Time
To Go:
Arrived

Flight Plot

Page will automatically refresh every two minutes.

Flight plan parsing failed; only flown route is shown


Map Options




Map Legend


Flown Route
Filed Route
Departure Airport
Arrival Airport
Navaid (VOR, NDB)
Fix

Horizontal Profiles

Position Reports

Time Latitude Longitude Heading Altitude Ground
Speed
24-Nov-17 14:13 33.941640 -118.399164 262 114ft 0kts
24-Nov-17 14:14 33.941640 -118.399164 262 114ft 0kts
24-Nov-17 14:15 33.941640 -118.399164 262 114ft 0kts
24-Nov-17 14:16 33.941640 -118.399164 262 114ft 0kts
24-Nov-17 14:17 33.941640 -118.399164 262 114ft 0kts
24-Nov-17 14:18 33.941640 -118.399164 262 114ft 0kts
24-Nov-17 14:19 33.941640 -118.399164 262 114ft 0kts
24-Nov-17 14:20 33.941640 -118.399164 262 114ft 0kts
24-Nov-17 14:21 33.941640 -118.399164 262 114ft 0kts
24-Nov-17 14:22 33.941640 -118.399164 262 114ft 0kts
24-Nov-17 14:23 33.941754 -118.398811 232 113ft 2kts
24-Nov-17 14:24 33.942267 -118.398518 176 113ft 1kts
24-Nov-17 14:25 33.942322 -118.398524 171 113ft 0kts
24-Nov-17 14:26 33.942322 -118.398524 171 113ft 0kts
24-Nov-17 14:27 33.942319 -118.398524 171 113ft 0kts
24-Nov-17 14:28 33.940026 -118.398166 166 112ft 0kts
24-Nov-17 14:29 33.940026 -118.398166 166 112ft 0kts
24-Nov-17 14:30 33.940013 -118.398162 166 112ft 1kts
24-Nov-17 14:31 33.939465 -118.393459 82 106ft 24kts
24-Nov-17 14:32 33.940276 -118.385566 83 102ft 19kts
24-Nov-17 14:33 33.940683 -118.380603 117 99ft 0kts
24-Nov-17 14:34 33.940683 -118.380603 117 99ft 0kts
24-Nov-17 14:35 33.940683 -118.380603 117 99ft 0kts
24-Nov-17 14:36 33.940683 -118.380603 117 99ft 0kts
24-Nov-17 14:37 33.940502 -118.380333 142 99ft 10kts
24-Nov-17 14:38 33.936920 -118.406841 262 544ft 201kts
24-Nov-17 14:39 33.914145 -118.474292 232 4608ft 243kts
24-Nov-17 14:40 33.859795 -118.534276 194 5863ft 259kts
24-Nov-17 14:41 33.790310 -118.524200 169 8520ft 255kts
24-Nov-17 14:42 33.717573 -118.508328 172 10975ft 295kts
24-Nov-17 14:43 33.635183 -118.490565 171 11040ft 303kts
24-Nov-17 14:44 33.543799 -118.468219 155 11011ft 366kts
24-Nov-17 14:45 33.495807 -118.365307 101 11066ft 370kts
24-Nov-17 14:46 33.473837 -118.245513 101 11048ft 370kts
24-Nov-17 14:47 33.452224 -118.125522 101 11021ft 370kts
24-Nov-17 14:48 33.431106 -118.006045 101 11002ft 369kts
24-Nov-17 14:49 33.397921 -117.891197 112 11008ft 369kts
24-Nov-17 14:50 33.359769 -117.777505 111 11006ft 369kts
24-Nov-17 14:51 33.325029 -117.672073 112 11009ft 368kts
24-Nov-17 14:52 33.247579 -117.611967 148 11026ft 365kts
24-Nov-17 14:53 33.173323 -117.551221 146 10998ft 366kts
24-Nov-17 14:54 33.090167 -117.481658 145 10998ft 365kts
24-Nov-17 14:55 33.011755 -117.416171 145 11025ft 309kts
24-Nov-17 14:56 32.942037 -117.358384 146 9765ft 306kts
24-Nov-17 14:57 32.874729 -117.302935 146 7889ft 304kts
24-Nov-17 14:58 32.825755 -117.231551 101 7018ft 274kts
24-Nov-17 14:59 32.812286 -117.148314 101 7005ft 254kts
24-Nov-17 15:00 32.798852 -117.065865 101 6122ft 257kts
24-Nov-17 15:01 32.785343 -116.985790 101 4982ft 234kts
24-Nov-17 15:02 32.772000 -116.909670 101 5005ft 235kts
24-Nov-17 15:03 32.722402 -116.883009 200 5012ft 235kts
24-Nov-17 15:04 32.675905 -116.921843 259 4626ft 211kts
24-Nov-17 15:05 32.683734 -116.981868 303 3445ft 192kts
24-Nov-17 15:06 32.697462 -117.040567 281 3012ft 174kts
24-Nov-17 15:07 32.710369 -117.093312 286 2368ft 164kts
24-Nov-17 15:08 32.722582 -117.143857 282 1012ft 156kts
24-Nov-17 15:09 32.733510 -117.189253 283 21ft 119kts
24-Nov-17 15:10 32.736265 -117.204161 189 17ft 0kts
24-Nov-17 15:11 32.735937 -117.203763 108 17ft 13kts
24-Nov-17 15:12 32.732829 -117.202945 222 17ft 11kts
24-Nov-17 15:13 32.732534 -117.203279 223 17ft 0kts

Navigation Log

Ident Type
Flight plan parsing failed, navigation log unavailable